Time;durP1;ratioP1;P1;durP2;ratioP2;P2;SDS_P1;SDS_P2;PMS_P1;PMS_P2;Temp;Humidity;BMP_temperature;BMP_pressure;BME280_temperature;BME280_humidity;BME280_pressure;Samples;Min_cycle;Max_cycle;Signal;HPM_P1;HPM_P2
2022/12/04 00:01:10;;;;;;;16.73;12.93;;;9.80;99.90;;;;;;5062516;28;20288;-67
2022/12/04 00:03:37;;;;;;;17.40;12.23;;;9.80;99.90;;;;;;5064221;28;20206;-66
2022/12/04 00:06:11;;;;;;;13.83;12.33;;;9.90;99.90;;;;;;5064543;28;20220;-66
2022/12/04 00:08:39;;;;;;;16.23;12.60;;;9.90;99.90;;;;;;5060962;28;20644;-67
2022/12/04 00:11:08;;;;;;;14.33;11.57;;;9.90;99.90;;;;;;5061988;28;20699;-66
2022/12/04 00:13:36;;;;;;;14.30;10.33;;;9.90;99.80;;;;;;5070849;28;20608;-66
2022/12/04 00:16:05;;;;;;;11.60;10.33;;;9.90;99.80;;;;;;5065576;28;20227;-66
2022/12/04 00:18:33;;;;;;;13.93;10.47;;;9.90;99.80;;;;;;5064110;28;20219;-67
2022/12/04 00:21:06;;;;;;;12.93;10.00;;;9.90;99.80;;;;;;5064157;28;20192;-66
2022/12/04 00:23:34;;;;;;;11.63;9.07;;;9.80;99.90;;;;;;5058863;28;20196;-67
2022/12/04 00:26:03;;;;;;;11.80;8.90;;;9.80;99.80;;;;;;5060325;28;20216;-66
2022/12/04 00:28:30;;;;;;;11.20;9.70;;;9.80;99.80;;;;;;5058776;28;20200;-66
2022/12/04 00:30:58;;;;;;;11.70;8.37;;;9.80;99.80;;;;;;5061348;28;20626;-66
2022/12/04 00:33:25;;;;;;;11.80;8.37;;;9.80;99.80;;;;;;5062693;28;20195;-66
2022/12/04 00:35:59;;;;;;;12.70;9.20;;;9.80;99.80;;;;;;5058355;28;20199;-66
2022/12/04 00:38:26;;;;;;;13.17;9.17;;;9.80;99.80;;;;;;5063783;28;20281;-66
2022/12/04 00:40:53;;;;;;;11.97;8.30;;;9.80;99.90;;;;;;5062967;28;20206;-66
2022/12/04 00:43:22;;;;;;;13.40;7.53;;;9.80;99.90;;;;;;5057689;28;20192;-66
2022/12/04 00:45:49;;;;;;;9.40;7.43;;;9.80;99.90;;;;;;5062015;28;20221;-67
2022/12/04 00:48:16;;;;;;;10.53;6.60;;;9.80;99.80;;;;;;5060302;28;20189;-66
2022/12/04 00:50:43;;;;;;;9.80;7.73;;;9.80;99.70;;;;;;5063913;28;20487;-66
2022/12/04 00:53:11;;;;;;;8.33;7.27;;;9.80;99.70;;;;;;5060807;28;20226;-66
2022/12/04 00:55:42;;;;;;;11.30;6.10;;;9.80;99.70;;;;;;5061347;28;20207;-66
2022/12/04 00:58:09;;;;;;;9.47;6.70;;;9.80;99.70;;;;;;5063451;28;20650;-67
2022/12/04 01:00:39;;;;;;;8.50;6.37;;;9.80;99.70;;;;;;5060043;28;20649;-66
2022/12/04 01:03:07;;;;;;;7.20;6.10;;;9.80;99.70;;;;;;5064907;28;20200;-66
2022/12/04 01:05:43;;;;;;;8.83;6.17;;;9.80;99.60;;;;;;5060165;28;20275;-66
2022/12/04 01:08:11;;;;;;;8.87;6.20;;;9.80;99.50;;;;;;5061992;28;20204;-66
2022/12/04 01:10:40;;;;;;;8.00;6.07;;;9.80;99.50;;;;;;5061334;28;20230;-66
2022/12/04 01:13:08;;;;;;;8.87;5.90;;;9.80;99.60;;;;;;5060590;28;20191;-66
2022/12/04 01:15:40;;;;;;;7.83;5.90;;;9.80;99.60;;;;;;5059575;28;20204;-66
2022/12/04 01:18:07;;;;;;;7.73;5.47;;;9.90;99.50;;;;;;5064462;28;20190;-66
2022/12/04 01:20:34;;;;;;;7.27;5.77;;;9.90;99.40;;;;;;5064118;28;20195;-66
2022/12/04 01:23:01;;;;;;;6.17;5.17;;;9.90;99.30;;;;;;5062621;28;20255;-66
2022/12/04 01:25:29;;;;;;;6.93;5.80;;;9.90;99.30;;;;;;5063172;28;20219;-66
2022/12/04 01:27:56;;;;;;;8.57;5.77;;;9.90;99.30;;;;;;5063872;28;20198;-66
2022/12/04 01:30:23;;;;;;;7.10;5.20;;;9.90;99.30;;;;;;5060844;28;20213;-66
2022/12/04 01:32:50;;;;;;;9.63;4.97;;;9.90;99.20;;;;;;5078781;28;20194;-66
2022/12/04 01:35:17;;;;;;;7.30;4.50;;;9.90;99.10;;;;;;5058684;28;20229;-66
2022/12/04 01:37:44;;;;;;;6.60;4.93;;;9.90;99.00;;;;;;5057731;28;20195;-66
2022/12/04 01:40:15;;;;;;;5.83;5.13;;;9.90;99.00;;;;;;5062384;28;20225;-66
2022/12/04 01:42:42;;;;;;;8.13;4.50;;;9.90;99.00;;;;;;5062774;28;20206;-66
2022/12/04 01:45:38;;;;;;;9.13;4.90;;;9.90;98.90;;;;;;5067527;28;20252;-66
2022/12/04 01:48:17;;;;;;;5.67;4.73;;;9.90;98.90;;;;;;5068575;28;20281;-66
2022/12/04 01:50:47;;;;;;;7.37;4.77;;;9.90;98.80;;;;;;5073911;28;20260;-66
2022/12/04 01:53:14;;;;;;;6.10;4.70;;;9.90;98.70;;;;;;5077189;28;20197;-66
2022/12/04 01:55:42;;;;;;;5.40;4.40;;;9.90;98.70;;;;;;5065019;28;20553;-66
2022/12/04 01:58:10;;;;;;;8.30;4.43;;;9.90;98.60;;;;;;5067096;28;20217;-66
2022/12/04 02:00:37;;;;;;;5.47;4.10;;;9.90;98.60;;;;;;5068073;28;20194;-66
2022/12/04 02:03:04;;;;;;;7.20;4.53;;;9.90;98.60;;;;;;5069361;28;20195;-66
2022/12/04 02:05:31;;;;;;;6.77;4.33;;;9.90;98.70;;;;;;5069080;28;20221;-66
2022/12/04 02:08:04;;;;;;;7.43;4.73;;;9.90;98.80;;;;;;5069911;28;20194;-66
2022/12/04 02:10:47;;;;;;;8.67;5.00;;;9.80;98.80;;;;;;5066028;28;20205;-66
2022/12/04 02:13:41;;;;;;;5.83;4.83;;;9.80;98.90;;;;;;5075559;28;20205;-66
2022/12/04 02:16:18;;;;;;;7.30;4.87;;;9.80;99.00;;;;;;5068005;28;20205;-66
2022/12/04 02:19:11;;;;;;;6.87;4.63;;;9.80;99.10;;;;;;5069049;28;20210;-66
2022/12/04 02:21:44;;;;;;;6.50;4.80;;;9.80;99.10;;;;;;5068819;28;20487;-67
2022/12/04 02:24:41;;;;;;;5.77;4.80;;;9.80;99.00;;;;;;5069558;28;20210;-66
2022/12/04 02:27:39;;;;;;;5.17;4.63;;;9.80;99.10;;;;;;5060362;28;20562;-66
2022/12/04 02:30:11;;;;;;;6.53;4.70;;;9.90;99.10;;;;;;5063421;28;20206;-66
2022/12/04 02:32:48;;;;;;;6.93;4.17;;;9.90;99.10;;;;;;5067098;28;20191;-66
2022/12/04 02:35:19;;;;;;;5.20;4.60;;;9.90;99.10;;;;;;5070501;28;20269;-67
2022/12/04 02:37:55;;;;;;;5.17;4.60;;;10.00;99.20;;;;;;5069446;28;20206;-66
2022/12/04 02:40:32;;;;;;;11.40;4.60;;;10.00;99.10;;;;;;5070366;28;20585;-67
2022/12/04 02:43:19;;;;;;;9.40;5.10;;;10.00;99.10;;;;;;5068570;28;20216;-68
2022/12/04 02:46:06;;;;;;;7.40;4.87;;;10.00;99.10;;;;;;5063612;28;20654;-66
2022/12/04 02:48:39;;;;;;;6.60;4.60;;;10.10;99.00;;;;;;5065995;28;20199;-66
2022/12/04 02:51:09;;;;;;;6.00;4.80;;;10.10;98.90;;;;;;5066792;28;20540;-67
2022/12/04 02:53:43;;;;;;;8.30;4.87;;;10.10;98.80;;;;;;5072334;28;20573;-67
2022/12/04 02:56:18;;;;;;;6.83;5.60;;;10.10;98.80;;;;;;5067119;28;20215;-66
2022/12/04 02:58:56;;;;;;;5.57;4.90;;;10.10;98.80;;;;;;5065777;28;20201;-66
2022/12/04 03:01:30;;;;;;;5.87;4.50;;;10.10;98.80;;;;;;5068464;28;20213;-67
2022/12/04 03:04:02;;;;;;;6.50;4.80;;;10.10;98.70;;;;;;5065567;28;20639;-66
2022/12/04 03:06:33;;;;;;;8.50;4.70;;;10.00;98.80;;;;;;5063296;28;20207;-67
2022/12/04 03:09:20;;;;;;;7.53;4.57;;;10.00;98.80;;;;;;5063989;28;20214;-66
2022/12/04 03:12:12;;;;;;;7.33;4.70;;;10.00;98.80;;;;;;5072177;28;20246;-66
2022/12/04 03:14:46;;;;;;;8.53;5.53;;;10.00;98.90;;;;;;5062853;28;20271;-66
2022/12/04 03:17:20;;;;;;;5.07;4.57;;;10.00;98.90;;;;;;5064833;28;20648;-66
2022/12/04 03:19:55;;;;;;;6.20;4.90;;;10.00;99.00;;;;;;5067191;28;20206;-66
2022/12/04 03:22:25;;;;;;;5.97;4.77;;;10.00;99.00;;;;;;5069334;28;20670;-66
2022/12/04 03:24:54;;;;;;;6.03;4.50;;;10.00;99.00;;;;;;5062095;28;20203;-66
2022/12/04 03:27:33;;;;;;;6.60;4.60;;;10.00;99.00;;;;;;5064863;28;20223;-66
2022/12/04 03:30:13;;;;;;;6.97;4.97;;;10.00;99.00;;;;;;5067367;28;20192;-66
2022/12/04 03:32:55;;;;;;;9.83;4.77;;;10.00;99.00;;;;;;5064208;28;20207;-66
2022/12/04 03:35:28;;;;;;;6.77;5.20;;;10.00;99.00;;;;;;5062101;28;20196;-66
2022/12/04 03:38:00;;;;;;;9.80;5.63;;;10.10;99.10;;;;;;5064804;28;20201;-66
2022/12/04 03:40:36;;;;;;;6.97;4.93;;;10.10;99.00;;;;;;5063547;28;20201;-66
2022/12/04 03:43:22;;;;;;;7.20;5.20;;;10.10;99.00;;;;;;5065094;28;20198;-66
2022/12/04 03:45:53;;;;;;;20.27;4.60;;;10.10;98.90;;;;;;5065004;28;20220;-66
2022/12/04 03:48:30;;;;;;;5.03;4.30;;;10.00;98.90;;;;;;5064277;28;20202;-66
2022/12/04 03:51:02;;;;;;;6.90;4.50;;;10.00;98.80;;;;;;5066226;28;20540;-66
2022/12/04 03:53:56;;;;;;;5.47;4.63;;;10.00;98.80;;;;;;5061853;28;20199;-66
2022/12/04 03:56:31;;;;;;;6.40;5.07;;;10.00;98.80;;;;;;5057935;28;20231;-66
2022/12/04 03:59:05;;;;;;;8.13;4.90;;;10.00;98.80;;;;;;5063370;28;20209;-66
2022/12/04 04:01:37;;;;;;;4.83;4.23;;;10.00;98.90;;;;;;5064381;28;20212;-66
2022/12/04 04:04:08;;;;;;;7.47;4.93;;;10.00;98.90;;;;;;5063311;28;20200;-66
2022/12/04 04:07:03;;;;;;;7.13;4.47;;;10.00;98.60;;;;;;5061793;28;20325;-67
2022/12/04 04:09:36;;;;;;;9.73;5.17;;;10.00;98.60;;;;;;5064507;28;20202;-66
2022/12/04 04:12:10;;;;;;;6.43;4.73;;;9.90;98.70;;;;;;5072043;28;20665;-66
2022/12/04 04:26:24;;;;;;;6.00;4.97;;;10.00;99.00;;;;;;5062826;28;20217;-66
2022/12/04 04:28:51;;;;;;;4.43;3.77;;;10.00;98.90;;;;;;5061368;28;20217;-67
2022/12/04 04:31:30;;;;;;;6.70;4.30;;;10.00;98.80;;;;;;5064306;28;20234;-67
2022/12/04 04:34:22;;;;;;;7.53;4.23;;;10.00;98.90;;;;;;5065123;28;20255;-67
2022/12/04 04:36:55;;;;;;;5.83;4.00;;;10.00;98.90;;;;;;5058792;28;20698;-67
2022/12/04 04:39:45;;;;;;;7.00;4.23;;;10.00;99.00;;;;;;5064589;28;20202;-67
2022/12/04 04:42:31;;;;;;;6.33;4.80;;;10.00;99.00;;;;;;5063860;28;20199;-67
2022/12/04 04:45:04;;;;;;;5.03;4.10;;;10.00;99.10;;;;;;5059661;28;20264;-67
2022/12/04 04:47:43;;;;;;;5.00;3.70;;;10.00;99.10;;;;;;5063794;28;20308;-67
2022/12/04 04:50:12;;;;;;;4.93;3.60;;;10.00;99.10;;;;;;5061858;28;20207;-67
2022/12/04 04:52:45;;;;;;;6.30;3.17;;;10.00;99.10;;;;;;5063327;28;20295;-66
2022/12/04 04:55:14;;;;;;;6.77;3.63;;;10.00;99.10;;;;;;5062220;28;20635;-67
2022/12/04 04:57:42;;;;;;;8.80;3.90;;;10.10;99.20;;;;;;5063303;28;20213;-66
2022/12/04 05:00:15;;;;;;;6.93;3.63;;;10.10;99.20;;;;;;5061833;28;20198;-66
2022/12/04 05:02:43;;;;;;;6.97;3.90;;;10.10;99.10;;;;;;5057818;28;20608;-66
2022/12/04 05:05:12;;;;;;;4.47;3.60;;;10.10;99.20;;;;;;5068493;28;20241;-66
2022/12/04 05:07:39;;;;;;;6.57;3.73;;;10.10;99.20;;;;;;5061829;28;20299;-68
2022/12/04 05:10:07;;;;;;;5.37;3.70;;;10.10;99.20;;;;;;5062705;28;20195;-66
2022/12/04 05:12:34;;;;;;;5.50;3.27;;;10.10;99.10;;;;;;5061654;28;20231;-66
2022/12/04 05:15:02;;;;;;;7.43;3.70;;;10.10;99.10;;;;;;5060082;28;20196;-66
2022/12/04 05:17:29;;;;;;;5.17;4.23;;;10.10;99.20;;;;;;5061592;28;20203;-66
2022/12/04 05:19:56;;;;;;;5.50;4.60;;;10.10;99.10;;;;;;5062731;28;20194;-66
2022/12/04 05:22:30;;;;;;;5.97;5.00;;;10.10;99.00;;;;;;5057794;28;20523;-66
2022/12/04 05:24:58;;;;;;;7.00;4.23;;;10.00;99.00;;;;;;5057284;28;20559;-66
2022/12/04 05:27:26;;;;;;;6.47;4.47;;;10.00;99.10;;;;;;5059277;28;20230;-66
2022/12/04 05:29:57;;;;;;;4.50;3.93;;;10.00;99.10;;;;;;5062533;28;20657;-66
2022/12/04 05:32:26;;;;;;;7.23;4.57;;;10.00;99.20;;;;;;5062326;28;20255;-66
2022/12/04 05:34:55;;;;;;;6.10;4.70;;;10.00;99.20;;;;;;5060445;28;20516;-66
2022/12/04 05:37:22;;;;;;;5.53;5.03;;;10.00;99.30;;;;;;5054726;28;20220;-66
2022/12/04 05:39:49;;;;;;;6.50;5.40;;;10.00;99.30;;;;;;5056359;28;20205;-67
2022/12/04 05:42:17;;;;;;;7.77;4.93;;;10.00;99.30;;;;;;5067910;28;20202;-67
2022/12/04 05:44:44;;;;;;;6.73;5.03;;;10.00;99.30;;;;;;5064704;28;20262;-67
2022/12/04 05:47:11;;;;;;;6.20;4.97;;;10.00;99.30;;;;;;5069948;28;20240;-67
2022/12/04 05:49:38;;;;;;;5.87;4.83;;;9.90;99.30;;;;;;5066282;28;20191;-67
2022/12/04 05:52:06;;;;;;;5.53;4.53;;;9.90;99.40;;;;;;5065458;28;20641;-67
2022/12/04 05:54:33;;;;;;;6.57;4.87;;;9.90;99.50;;;;;;5058115;28;20551;-67
2022/12/04 05:57:00;;;;;;;7.23;4.03;;;9.90;99.60;;;;;;5053904;28;20203;-67
2022/12/04 05:59:27;;;;;;;7.47;5.00;;;9.80;99.70;;;;;;5060345;28;20260;-67
2022/12/04 06:01:54;;;;;;;5.10;3.90;;;9.80;99.90;;;;;;5060325;28;20289;-67
2022/12/04 06:04:21;;;;;;;6.03;3.50;;;9.90;99.90;;;;;;5063882;28;20204;-67
2022/12/04 06:06:48;;;;;;;4.37;3.87;;;9.80;99.90;;;;;;5061913;28;20228;-67
2022/12/04 06:09:15;;;;;;;5.73;3.67;;;9.80;99.90;;;;;;5062204;28;20225;-68
2022/12/04 06:11:43;;;;;;;5.80;3.50;;;9.80;99.90;;;;;;5062757;28;20231;-67
2022/12/04 06:14:13;;;;;;;5.53;3.40;;;9.80;99.90;;;;;;5055695;28;20198;-67
2022/12/04 06:16:43;;;;;;;4.83;3.97;;;9.80;99.90;;;;;;5060506;28;20300;-67
2022/12/04 06:19:18;;;;;;;5.37;3.73;;;9.80;99.90;;;;;;5060694;28;20282;-67
2022/12/04 06:21:47;;;;;;;4.67;3.90;;;9.80;99.90;;;;;;5060792;28;20202;-67
2022/12/04 06:24:17;;;;;;;4.20;3.50;;;9.90;99.90;;;;;;5061299;28;20196;-67
2022/12/04 06:26:45;;;;;;;5.33;4.03;;;9.90;99.90;;;;;;5061960;28;20222;-67
2022/12/04 06:29:32;;;;;;;6.13;4.40;;;9.90;99.90;;;;;;5062267;28;20294;-67
2022/12/04 06:31:59;;;;;;;6.10;4.27;;;9.90;99.90;;;;;;5067351;28;20190;-67
2022/12/04 06:34:27;;;;;;;5.60;5.00;;;9.90;99.90;;;;;;5063473;28;20197;-67
2022/12/04 06:36:54;;;;;;;5.87;5.23;;;9.90;99.90;;;;;;5061378;28;20233;-67
2022/12/04 06:39:21;;;;;;;6.90;6.17;;;9.90;99.90;;;;;;5065350;28;20260;-67
2022/12/04 06:41:48;;;;;;;9.47;6.10;;;9.90;99.90;;;;;;5067125;28;20220;-67
2022/12/04 06:44:15;;;;;;;8.77;7.83;;;9.90;99.90;;;;;;5066637;28;20202;-67
2022/12/04 06:46:43;;;;;;;10.00;8.47;;;9.90;99.90;;;;;;5061284;28;20220;-67
2022/12/04 06:49:13;;;;;;;8.50;7.70;;;9.90;99.90;;;;;;5067886;28;20269;-67
2022/12/04 06:51:41;;;;;;;9.90;8.17;;;9.90;99.90;;;;;;5063914;28;20209;-67
2022/12/04 06:54:09;;;;;;;9.93;8.37;;;9.90;99.90;;;;;;5068636;28;20221;-67
2022/12/04 06:56:36;;;;;;;8.70;7.90;;;9.90;99.90;;;;;;5066131;28;20651;-67
2022/12/04 06:59:04;;;;;;;6.43;5.83;;;9.90;99.90;;;;;;5064252;28;20227;-67
2022/12/04 07:01:33;;;;;;;5.47;4.97;;;9.90;99.90;;;;;;5063415;28;20229;-67
2022/12/04 07:04:02;;;;;;;5.73;5.23;;;9.90;99.90;;;;;;5067066;28;20259;-66
2022/12/04 07:06:35;;;;;;;5.23;4.73;;;9.90;99.90;;;;;;5061437;28;20285;-67
2022/12/04 07:09:12;;;;;;;4.87;4.47;;;9.90;99.90;;;;;;5062075;28;20209;-67
2022/12/04 07:11:40;;;;;;;5.30;4.80;;;9.90;99.90;;;;;;5061609;28;20592;-67
2022/12/04 07:14:08;;;;;;;5.03;4.27;;;9.90;99.90;;;;;;5066104;28;20205;-67
2022/12/04 07:16:35;;;;;;;4.80;4.40;;;9.90;99.90;;;;;;5064516;28;20741;-67
2022/12/04 07:19:12;;;;;;;5.27;4.17;;;9.80;99.90;;;;;;5068189;28;20206;-68
2022/12/04 07:21:39;;;;;;;5.13;4.60;;;9.80;99.60;;;;;;5081719;28;20208;-68
2022/12/04 07:24:06;;;;;;;4.77;4.37;;;9.80;99.50;;;;;;5058665;28;20203;-67
2022/12/04 07:26:34;;;;;;;4.50;4.07;;;9.70;99.50;;;;;;5060558;28;20269;-67
2022/12/04 07:29:01;;;;;;;4.70;4.20;;;9.70;99.60;;;;;;5063603;28;20205;-67
2022/12/04 07:31:29;;;;;;;4.70;4.30;;;9.70;99.70;;;;;;5060320;28;20200;-67
2022/12/04 07:33:56;;;;;;;7.70;4.67;;;9.70;99.80;;;;;;5063691;28;20191;-67
2022/12/04 07:36:24;;;;;;;6.00;5.40;;;9.70;99.90;;;;;;5063288;28;20637;-67
2022/12/04 07:38:53;;;;;;;15.30;11.43;;;9.70;99.90;;;;;;5060704;28;20218;-67
2022/12/04 07:41:20;;;;;;;12.07;10.23;;;9.70;99.90;;;;;;5072425;28;20309;-67
2022/12/04 07:43:47;;;;;;;120.77;80.80;;;9.70;99.90;;;;;;5069702;28;20286;-67
2022/12/04 07:46:18;;;;;;;14.37;11.00;;;9.70;99.90;;;;;;5063025;28;20203;-67
2022/12/04 07:48:45;;;;;;;99.97;36.47;;;9.80;99.90;;;;;;5064219;28;20281;-67
2022/12/04 07:51:21;;;;;;;821.37;311.93;;;9.80;99.90;;;;;;5065587;28;20208;-67
2022/12/04 07:53:49;;;;;;;597.93;236.70;;;9.80;99.90;;;;;;5062526;28;20613;-67
2022/12/04 07:56:17;;;;;;;57.10;26.40;;;9.80;99.90;;;;;;5062096;28;20257;-67
2022/12/04 07:58:45;;;;;;;12.97;8.27;;;9.80;99.90;;;;;;5061644;28;20246;-67
2022/12/04 08:01:16;;;;;;;12.40;8.37;;;9.80;99.90;;;;;;5059971;28;20586;-67
2022/12/04 08:03:45;;;;;;;8.33;6.80;;;9.80;99.90;;;;;;5063460;28;20196;-67
2022/12/04 08:06:17;;;;;;;14.60;10.63;;;9.70;99.90;;;;;;5062940;28;20266;-67
2022/12/04 08:08:44;;;;;;;8.77;7.50;;;9.80;99.90;;;;;;5068151;28;20208;-67
2022/12/04 08:11:14;;;;;;;8.43;7.20;;;9.80;99.90;;;;;;5067044;28;20300;-67
2022/12/04 08:13:42;;;;;;;9.13;7.13;;;9.80;99.90;;;;;;5070907;28;20277;-67
2022/12/04 08:16:12;;;;;;;7.77;6.50;;;9.90;99.90;;;;;;5065977;28;20614;-67
2022/12/04 08:18:40;;;;;;;7.87;6.57;;;9.90;99.90;;;;;;5078588;28;20264;-67
2022/12/04 08:21:13;;;;;;;7.10;6.30;;;9.90;99.90;;;;;;5062998;28;20516;-67
2022/12/04 08:23:41;;;;;;;7.10;6.33;;;9.90;99.90;;;;;;5063195;28;20286;-67
2022/12/04 08:26:10;;;;;;;7.60;6.50;;;9.90;99.90;;;;;;5061016;28;20194;-67
2022/12/04 08:28:38;;;;;;;7.03;6.33;;;10.00;99.90;;;;;;5064414;28;20223;-68
2022/12/04 08:31:09;;;;;;;9.10;6.30;;;10.00;99.90;;;;;;5068104;28;20215;-67
2022/12/04 08:33:36;;;;;;;8.40;7.50;;;10.00;99.90;;;;;;5062751;28;20270;-67
2022/12/04 08:36:11;;;;;;;7.70;6.90;;;10.00;99.90;;;;;;5073134;28;20634;-67
2022/12/04 08:38:38;;;;;;;7.80;7.00;;;10.00;99.90;;;;;;5062630;28;20221;-67
2022/12/04 08:41:10;;;;;;;8.57;6.47;;;10.00;99.90;;;;;;5061918;28;20258;-67
2022/12/04 08:43:38;;;;;;;8.57;7.20;;;10.00;99.90;;;;;;5064424;28;20635;-67
2022/12/04 08:46:09;;;;;;;8.33;7.43;;;10.00;99.90;;;;;;5059906;28;20480;-67
2022/12/04 08:48:37;;;;;;;8.67;7.13;;;10.00;99.90;;;;;;5058492;28;20237;-67
2022/12/04 08:51:08;;;;;;;10.07;8.17;;;10.10;99.90;;;;;;5064707;28;20204;-67
2022/12/04 08:53:36;;;;;;;7.37;6.57;;;10.00;99.90;;;;;;5069777;28;20204;-68
2022/12/04 08:56:04;;;;;;;9.10;7.20;;;10.10;99.90;;;;;;5061731;28;20195;-67
2022/12/04 08:58:31;;;;;;;10.07;8.17;;;10.00;99.90;;;;;;5061323;28;20199;-67
2022/12/04 09:01:10;;;;;;;10.20;8.10;;;10.10;99.90;;;;;;5060752;28;20216;-67
2022/12/04 09:03:38;;;;;;;11.43;9.47;;;10.10;99.90;;;;;;5059728;28;20538;-67
2022/12/04 09:06:06;;;;;;;11.57;9.07;;;10.10;99.90;;;;;;5062808;28;20204;-67
2022/12/04 09:08:35;;;;;;;12.50;8.23;;;10.10;99.90;;;;;;5066694;28;20242;-67
2022/12/04 09:11:09;;;;;;;12.70;9.73;;;10.00;99.90;;;;;;5058660;28;20357;-67
2022/12/04 09:13:36;;;;;;;11.73;9.20;;;10.10;99.90;;;;;;5057899;28;20251;-67
2022/12/04 09:16:07;;;;;;;12.03;9.83;;;10.10;99.90;;;;;;5063008;28;20562;-67
2022/12/04 09:18:36;;;;;;;11.37;9.33;;;10.10;99.90;;;;;;5068561;28;20202;-67
2022/12/04 09:21:06;;;;;;;12.73;9.87;;;10.10;99.90;;;;;;5067279;28;20236;-67
2022/12/04 09:23:35;;;;;;;13.47;10.13;;;10.10;99.80;;;;;;5054487;28;20234;-67
2022/12/04 09:26:03;;;;;;;11.73;9.60;;;10.10;99.80;;;;;;5058161;28;20208;-68
2022/12/04 09:28:30;;;;;;;13.50;10.93;;;10.10;99.80;;;;;;5059913;28;20210;-67
2022/12/04 09:31:04;;;;;;;12.87;10.47;;;10.10;99.80;;;;;;5063222;28;20203;-67
2022/12/04 09:33:32;;;;;;;11.87;9.50;;;10.10;99.70;;;;;;5061643;28;20656;-67
2022/12/04 09:36:00;;;;;;;10.27;9.20;;;10.10;99.70;;;;;;5059945;28;20196;-67
2022/12/04 09:38:28;;;;;;;10.93;9.50;;;10.10;99.70;;;;;;5060721;28;20201;-67
2022/12/04 09:40:58;;;;;;;11.27;9.40;;;10.10;99.70;;;;;;5057716;28;20207;-67
2022/12/04 09:43:45;;;;;;;11.07;8.63;;;10.20;99.70;;;;;;5061248;28;20196;-67
2022/12/04 09:46:25;;;;;;;8.40;7.50;;;10.20;99.70;;;;;;5060718;28;20216;-67
2022/12/04 09:48:54;;;;;;;8.00;7.17;;;10.20;99.70;;;;;;5062299;28;20214;-67
2022/12/04 09:51:23;;;;;;;8.87;7.60;;;10.20;99.70;;;;;;5066036;28;20238;-67
2022/12/04 09:53:56;;;;;;;8.47;7.33;;;10.20;99.70;;;;;;5060962;28;20539;-67
2022/12/04 09:56:28;;;;;;;6.70;6.00;;;10.20;99.70;;;;;;5059845;28;20687;-67
2022/12/04 09:59:07;;;;;;;7.37;6.20;;;10.30;99.60;;;;;;5064388;28;20199;-67
2022/12/04 10:01:58;;;;;;;7.27;6.57;;;10.30;99.60;;;;;;5062466;28;20205;-67
2022/12/04 10:04:25;;;;;;;6.73;5.40;;;10.30;99.60;;;;;;5066089;28;20208;-67
2022/12/04 10:06:57;;;;;;;7.20;6.23;;;10.30;99.60;;;;;;5065541;28;20246;-67
2022/12/04 10:09:42;;;;;;;7.27;6.57;;;10.30;99.60;;;;;;5064017;28;20223;-67
2022/12/04 10:12:44;;;;;;;8.33;6.53;;;10.30;99.60;;;;;;5063747;28;20636;-67
2022/12/04 10:15:38;;;;;;;7.17;5.40;;;10.40;99.60;;;;;;5062569;28;20258;-67
2022/12/04 10:18:23;;;;;;;6.00;5.23;;;10.40;99.50;;;;;;5065733;28;20266;-67
2022/12/04 10:20:58;;;;;;;6.93;4.87;;;10.30;99.40;;;;;;5065980;28;20213;-67
2022/12/04 10:23:50;;;;;;;5.40;4.90;;;10.40;99.50;;;;;;5068245;28;20280;-67
2022/12/04 10:26:20;;;;;;;4.57;4.17;;;10.40;99.50;;;;;;5061938;28;20213;-67
2022/12/04 10:28:55;;;;;;;5.30;4.80;;;10.40;99.50;;;;;;5082015;28;20218;-67
2022/12/04 10:31:25;;;;;;;5.40;4.90;;;10.50;99.40;;;;;;5069719;28;20220;-67
2022/12/04 10:34:07;;;;;;;4.90;4.40;;;10.50;99.40;;;;;;5059686;28;20400;-67
2022/12/04 10:36:34;;;;;;;4.77;4.30;;;10.50;99.40;;;;;;5067544;28;20247;-67
2022/12/04 10:39:26;;;;;;;7.50;5.47;;;10.50;99.30;;;;;;5064487;28;20205;-67
2022/12/04 10:42:10;;;;;;;4.87;4.47;;;10.60;99.40;;;;;;5063336;28;20630;-67
2022/12/04 10:44:38;;;;;;;5.50;4.90;;;10.60;99.30;;;;;;5066130;28;20196;-67
2022/12/04 10:47:05;;;;;;;5.10;4.60;;;10.70;99.30;;;;;;5063534;28;20205;-67
2022/12/04 10:49:35;;;;;;;5.63;5.13;;;10.70;99.30;;;;;;5065650;28;20209;-67
2022/12/04 10:52:05;;;;;;;5.27;4.77;;;10.70;99.30;;;;;;5067101;28;20211;-67
2022/12/04 10:54:34;;;;;;;5.37;4.87;;;10.80;99.40;;;;;;5059842;28;20205;-67
2022/12/04 10:57:07;;;;;;;4.90;4.50;;;10.80;99.30;;;;;;5063370;28;20258;-67
2022/12/04 10:59:38;;;;;;;5.17;4.70;;;10.90;99.30;;;;;;5063325;28;20200;-67
2022/12/04 11:02:21;;;;;;;4.93;4.53;;;10.90;99.20;;;;;;5061398;28;20196;-67
2022/12/04 11:05:06;;;;;;;4.40;4.00;;;11.00;99.20;;;;;;5060528;28;20364;-67
2022/12/04 11:07:44;;;;;;;4.53;4.13;;;11.10;99.10;;;;;;5060000;28;20255;-67
2022/12/04 11:10:23;;;;;;;4.90;4.50;;;11.10;99.00;;;;;;5061473;28;20635;-67
2022/12/04 11:13:05;;;;;;;5.90;4.60;;;11.10;99.20;;;;;;5065770;28;20323;-67
2022/12/04 11:15:46;;;;;;;5.23;4.77;;;11.10;98.90;;;;;;5071311;28;20223;-68
2022/12/04 11:18:25;;;;;;;4.50;4.10;;;11.20;98.90;;;;;;5063884;28;20192;-67
2022/12/04 11:20:54;;;;;;;4.60;4.10;;;11.20;98.90;;;;;;5063560;28;20214;-67
2022/12/04 11:23:23;;;;;;;5.10;4.60;;;11.20;98.80;;;;;;5058117;28;20208;-67
2022/12/04 11:25:54;;;;;;;5.17;4.13;;;11.20;98.80;;;;;;5061788;28;20282;-67
2022/12/04 11:28:30;;;;;;;3.90;3.60;;;11.30;98.80;;;;;;5064304;28;20212;-67
2022/12/04 11:31:20;;;;;;;3.83;3.53;;;11.30;98.70;;;;;;5064310;28;20210;-67
2022/12/04 11:33:54;;;;;;;3.87;3.50;;;11.30;98.60;;;;;;5062073;28;20234;-67
2022/12/04 11:36:35;;;;;;;4.20;3.80;;;11.20;98.60;;;;;;5070555;28;20224;-67
2022/12/04 11:39:06;;;;;;;3.93;3.53;;;11.30;98.60;;;;;;5067324;28;20234;-68
2022/12/04 11:41:34;;;;;;;3.87;3.57;;;11.30;98.70;;;;;;5072680;28;20609;-67
2022/12/04 11:44:01;;;;;;;4.00;3.70;;;11.30;98.70;;;;;;5064866;28;20204;-67
2022/12/04 11:46:31;;;;;;;3.90;3.60;;;11.40;98.60;;;;;;5064318;28;20200;-67
2022/12/04 11:48:58;;;;;;;4.07;3.50;;;11.40;98.50;;;;;;5062858;28;20224;-67
2022/12/04 11:51:25;;;;;;;4.00;3.60;;;11.40;98.50;;;;;;5064546;28;20189;-67
2022/12/04 11:54:01;;;;;;;4.70;3.10;;;11.40;98.50;;;;;;5066714;28;20533;-67
2022/12/04 11:56:32;;;;;;;4.20;3.80;;;11.40;98.50;;;;;;5070078;28;20521;-67
2022/12/04 11:59:05;;;;;;;4.53;3.83;;;11.50;98.50;;;;;;5069597;28;20241;-67
2022/12/04 12:01:35;;;;;;;4.10;3.80;;;11.50;98.50;;;;;;5067399;28;20533;-67
2022/12/04 12:04:21;;;;;;;3.80;3.50;;;11.50;98.50;;;;;;5062778;28;20229;-67
2022/12/04 12:07:03;;;;;;;4.00;3.70;;;11.60;98.50;;;;;;5062471;28;20208;-67
2022/12/04 12:10:05;;;;;;;4.17;3.77;;;11.50;98.50;;;;;;5063917;28;20218;-67
2022/12/04 12:13:00;;;;;;;3.40;3.10;;;11.60;98.50;;;;;;5062390;28;20731;-67
2022/12/04 12:15:39;;;;;;;3.40;3.10;;;11.70;98.50;;;;;;5061286;28;20214;-67
2022/12/04 12:18:15;;;;;;;3.80;3.50;;;11.70;98.50;;;;;;5066404;28;20618;-67
2022/12/04 12:20:58;;;;;;;3.90;3.33;;;11.70;98.40;;;;;;5060535;28;20653;-67
2022/12/04 12:23:25;;;;;;;3.50;3.20;;;11.80;98.40;;;;;;5067827;28;20205;-67
2022/12/04 12:26:03;;;;;;;3.40;3.03;;;11.80;98.40;;;;;;5063305;28;20619;-67
2022/12/04 12:29:03;;;;;;;3.07;2.87;;;11.90;98.30;;;;;;5063895;28;20645;-67
2022/12/04 12:31:51;;;;;;;3.13;2.90;;;12.00;98.20;;;;;;5065580;28;20692;-67
2022/12/04 12:34:29;;;;;;;3.40;3.10;;;12.00;98.10;;;;;;5058338;28;20613;-67
2022/12/04 12:37:04;;;;;;;6.83;2.93;;;12.00;98.00;;;;;;5061311;28;20208;-67
2022/12/04 12:40:04;;;;;;;3.60;3.30;;;12.00;98.00;;;;;;5062309;28;20299;-67
2022/12/04 12:42:41;;;;;;;3.87;3.00;;;12.00;97.90;;;;;;5063005;28;20211;-67
2022/12/04 12:45:47;;;;;;;3.20;2.90;;;11.90;97.80;;;;;;5063585;28;20246;-67
2022/12/04 12:48:30;;;;;;;3.77;2.90;;;11.90;97.70;;;;;;5082170;28;20660;-67
2022/12/04 12:51:22;;;;;;;3.53;3.23;;;11.90;97.70;;;;;;5067190;28;20657;-67
2022/12/04 12:54:32;;;;;;;3.50;3.20;;;11.80;97.70;;;;;;5062587;28;20208;-67
2022/12/04 12:57:09;;;;;;;3.40;3.10;;;11.80;97.70;;;;;;5060784;28;20201;-67
2022/12/04 12:59:40;;;;;;;3.30;3.00;;;11.80;97.70;;;;;;5061872;28;20706;-67
2022/12/04 13:02:16;;;;;;;3.53;3.23;;;11.80;97.50;;;;;;5062386;28;20281;-67
2022/12/04 13:04:46;;;;;;;3.40;3.10;;;11.80;97.50;;;;;;5062143;28;20288;-67
2022/12/04 13:07:17;;;;;;;3.37;3.07;;;11.70;97.40;;;;;;5060103;28;20213;-67
2022/12/04 13:10:03;;;;;;;3.27;3.00;;;11.70;97.40;;;;;;5059490;28;20671;-67
2022/12/04 13:12:42;;;;;;;3.47;3.00;;;11.60;97.40;;;;;;5064035;28;20319;-67
2022/12/04 13:15:19;;;;;;;4.00;3.67;;;11.60;97.50;;;;;;5066435;28;20231;-67
2022/12/04 13:17:49;;;;;;;3.83;3.53;;;11.50;97.60;;;;;;5062108;28;20290;-67
2022/12/04 13:20:24;;;;;;;5.40;3.90;;;11.60;97.70;;;;;;5066595;28;20194;-67
2022/12/04 13:23:21;;;;;;;4.70;4.30;;;11.50;97.70;;;;;;5057189;28;20197;-67
2022/12/04 13:25:54;;;;;;;3.77;3.30;;;11.50;97.80;;;;;;5058183;28;20599;-67
2022/12/04 13:28:59;;;;;;;2.90;2.70;;;11.60;97.90;;;;;;5063401;28;20212;-67
2022/12/04 13:32:01;;;;;;;3.10;2.80;;;11.70;97.50;;;;;;5064031;28;20206;-67